Time;durP1;ratioP1;P1;durP2;ratioP2;P2;SDS_P1;SDS_P2;PMS_P1;PMS_P2;Temp;Humidity;BMP_temperature;BMP_pressure;BME280_temperature;BME280_humidity;BME280_pressure;Samples;Min_cycle;Max_cycle;Signal;HPM_P1;HPM_P2
2022/04/08 00:00:27;;;;;;;;;;;12.70;61.30;;;;;;4951662;28;20019;-88
2022/04/08 00:02:53;;;;;;;;;;;12.80;61.20;;;;;;4974035;28;20010;-88
2022/04/08 00:05:18;;;;;;;;;;;12.70;61.20;;;;;;4974658;28;19953;-88
2022/04/08 00:07:44;;;;;;;;;;;12.80;61.30;;;;;;4977612;28;19918;-89
2022/04/08 00:10:10;;;;;;;;;;;12.70;61.10;;;;;;4960166;28;19922;-88
2022/04/08 00:12:35;;;;;;;;;;;12.70;61.00;;;;;;4975617;28;20012;-89
2022/04/08 00:15:01;;;;;;;;;;;12.70;61.00;;;;;;4960131;28;20002;-89
2022/04/08 00:17:26;;;;;;;;;;;12.60;61.10;;;;;;4957900;28;20337;-90
2022/04/08 00:19:51;;;;;;;;;;;12.60;61.20;;;;;;4959444;28;19997;-90
2022/04/08 00:22:21;;;;;;;;;;;12.50;60.90;;;;;;4968509;28;20281;-88
2022/04/08 00:24:47;;;;;;;;;;;12.40;60.80;;;;;;4957524;28;19933;-90
2022/04/08 00:27:12;;;;;;;;;;;12.30;61.20;;;;;;4973877;28;19922;-89
2022/04/08 00:29:38;;;;;;;;;;;12.30;61.50;;;;;;4970297;28;19918;-89
2022/04/08 00:32:03;;;;;;;;;;;12.30;61.50;;;;;;4967506;28;19925;-89
2022/04/08 00:34:29;;;;;;;;;;;12.30;61.80;;;;;;4976807;28;19925;-88
2022/04/08 00:36:55;;;;;;;;;;;12.20;62.00;;;;;;4976022;28;20370;-89
2022/04/08 00:39:21;;;;;;;;;;;12.20;62.10;;;;;;4977458;28;19949;-90
2022/04/08 00:41:47;;;;;;;;;;;12.20;62.20;;;;;;4972322;28;20338;-90
2022/04/08 00:44:12;;;;;;;;;;;12.20;62.30;;;;;;4972097;28;19961;-90
2022/04/08 00:46:38;;;;;;;;;;;12.20;62.10;;;;;;4974552;28;20022;-89
2022/04/08 00:49:04;;;;;;;;;;;12.20;62.30;;;;;;4975679;28;19957;-89
2022/04/08 00:51:30;;;;;;;;;;;12.20;62.30;;;;;;4959383;28;19941;-90
2022/04/08 00:53:56;;;;;;;;;;;12.20;62.30;;;;;;4976708;28;20379;-89
2022/04/08 00:56:21;;;;;;;;;;;12.20;62.50;;;;;;4973813;28;20382;-90
2022/04/08 00:58:47;;;;;;;;;;;12.20;62.60;;;;;;4975513;28;19964;-89
2022/04/08 01:01:13;;;;;;;;;;;12.20;62.60;;;;;;4976055;28;19918;-89
2022/04/08 01:03:38;;;;;;;;;;;12.20;62.60;;;;;;4958312;28;19926;-88
2022/04/08 01:06:03;;;;;;;;;;;12.20;62.80;;;;;;4975743;28;19996;-89
2022/04/08 01:08:30;;;;;;;;;;;12.20;62.80;;;;;;4958465;28;19914;-90
2022/04/08 01:10:55;;;;;;;;;;;12.20;62.80;;;;;;4974039;28;19914;-92
2022/04/08 01:13:21;;;;;;;;;;;12.20;62.80;;;;;;4958826;28;19926;-92
2022/04/08 01:15:47;;;;;;;;;;;12.20;62.80;;;;;;4966106;28;19914;-92
2022/04/08 01:18:12;;;;;;;;;;;12.10;62.80;;;;;;4973743;28;20261;-92
2022/04/08 01:20:38;;;;;;;;;;;12.10;62.90;;;;;;4977368;28;19914;-93
2022/04/08 01:23:04;;;;;;;;;;;12.10;62.90;;;;;;4959756;28;19973;-91
2022/04/08 01:25:30;;;;;;;;;;;12.00;63.00;;;;;;4977834;28;19914;-93
2022/04/08 01:27:56;;;;;;;;;;;12.10;63.20;;;;;;4981577;28;19918;-93
2022/04/08 01:30:21;;;;;;;;;;;12.00;63.30;;;;;;4976713;28;19982;-93
2022/04/08 01:32:46;;;;;;;;;;;12.00;63.30;;;;;;4977799;28;19964;-93
2022/04/08 01:35:13;;;;;;;;;;;12.00;63.30;;;;;;4975929;28;19920;-92
2022/04/08 01:37:38;;;;;;;;;;;12.00;63.10;;;;;;4976037;28;20389;-92
2022/04/08 01:40:04;;;;;;;;;;;12.00;63.20;;;;;;4977583;28;19922;-93
2022/04/08 01:42:30;;;;;;;;;;;12.00;63.20;;;;;;4977715;28;19921;-92
2022/04/08 01:44:55;;;;;;;;;;;11.90;63.10;;;;;;4974585;28;19922;-91
2022/04/08 01:47:22;;;;;;;;;;;11.80;63.10;;;;;;4959458;28;19922;-93
2022/04/08 01:49:47;;;;;;;;;;;11.80;63.20;;;;;;4973915;28;19922;-92
2022/04/08 01:52:13;;;;;;;;;;;11.80;63.10;;;;;;4974755;28;20278;-93
2022/04/08 01:54:39;;;;;;;;;;;11.70;63.10;;;;;;4977348;28;19914;-92
2022/04/08 01:57:04;;;;;;;;;;;11.70;63.10;;;;;;4975208;28;19926;-92
2022/04/08 01:59:30;;;;;;;;;;;11.70;63.20;;;;;;4975358;28;19921;-92
2022/04/08 02:01:55;;;;;;;;;;;11.60;63.20;;;;;;4959504;28;19918;-92
2022/04/08 02:04:21;;;;;;;;;;;11.60;63.10;;;;;;4952596;28;20422;-95
2022/04/08 02:06:46;;;;;;;;;;;11.60;63.30;;;;;;4976649;28;20030;-92
2022/04/08 02:09:12;;;;;;;;;;;11.50;63.30;;;;;;4969333;28;20014;-93
2022/04/08 02:11:40;;;;;;;;;;;11.50;63.40;;;;;;4976904;28;20010;-93
2022/04/08 02:14:06;;;;;;;;;;;11.50;63.30;;;;;;4974814;28;20389;-93
2022/04/08 02:16:31;;;;;;;;;;;11.50;63.40;;;;;;4959463;28;19914;-92
2022/04/08 02:18:57;;;;;;;;;;;11.50;63.40;;;;;;4976274;28;19914;-92
2022/04/08 02:21:23;;;;;;;;;;;11.50;63.50;;;;;;4973930;28;20350;-93
2022/04/08 02:23:49;;;;;;;;;;;11.50;63.50;;;;;;4976407;28;19941;-92
2022/04/08 02:26:16;;;;;;;;;;;11.50;63.60;;;;;;4979469;28;19957;-92
2022/04/08 02:28:45;;;;;;;;;;;11.50;63.50;;;;;;4979629;28;19910;-93
2022/04/08 02:31:11;;;;;;;;;;;11.50;63.60;;;;;;4979448;28;19921;-93
2022/04/08 02:33:37;;;;;;;;;;;11.50;63.60;;;;;;4963775;28;19926;-93
2022/04/08 02:36:03;;;;;;;;;;;11.50;63.60;;;;;;4981655;28;19944;-93
2022/04/08 02:38:28;;;;;;;;;;;11.40;63.50;;;;;;4979294;28;19914;-92
2022/04/08 02:40:54;;;;;;;;;;;11.40;63.50;;;;;;4980936;28;20010;-93
2022/04/08 02:43:19;;;;;;;;;;;11.40;63.60;;;;;;4980898;28;19918;-92
2022/04/08 02:45:44;;;;;;;;;;;11.40;63.50;;;;;;4982150;28;19914;-92
2022/04/08 02:48:13;;;;;;;;;;;11.40;63.40;;;;;;4980422;28;20001;-93
2022/04/08 02:50:39;;;;;;;;;;;11.40;63.30;;;;;;4979734;28;19914;-91
2022/04/08 02:53:05;;;;;;;;;;;11.30;63.30;;;;;;4971988;28;20002;-92
2022/04/08 02:55:30;;;;;;;;;;;11.30;63.30;;;;;;4979753;28;20795;-92
2022/04/08 02:57:56;;;;;;;;;;;11.30;63.40;;;;;;4960334;28;19926;-93
2022/04/08 03:00:21;;;;;;;;;;;11.30;63.30;;;;;;4979859;28;19922;-92
2022/04/08 03:02:47;;;;;;;;;;;11.30;63.40;;;;;;4959824;29;19965;-91
2022/04/08 03:05:13;;;;;;;;;;;11.30;63.40;;;;;;4974689;28;20014;-91
2022/04/08 03:07:39;;;;;;;;;;;11.30;63.40;;;;;;4976518;28;20294;-92
2022/04/08 03:10:05;;;;;;;;;;;11.30;63.30;;;;;;4962107;28;19914;-92
2022/04/08 03:12:31;;;;;;;;;;;11.20;63.20;;;;;;4978129;28;19922;-93
2022/04/08 03:14:57;;;;;;;;;;;11.30;63.40;;;;;;4980047;28;20335;-91
2022/04/08 03:17:23;;;;;;;;;;;11.20;63.40;;;;;;4978181;28;19918;-93
2022/04/08 03:19:48;;;;;;;;;;;11.20;63.50;;;;;;4974409;28;20294;-91
2022/04/08 03:22:14;;;;;;;;;;;11.20;63.50;;;;;;4974430;28;19925;-92
2022/04/08 03:24:39;;;;;;;;;;;11.30;63.40;;;;;;4977847;28;20381;-92
2022/04/08 03:27:05;;;;;;;;;;;11.30;63.30;;;;;;4972922;28;20013;-91
2022/04/08 03:29:30;;;;;;;;;;;11.20;63.40;;;;;;4974678;28;19914;-90
2022/04/08 03:31:56;;;;;;;;;;;11.20;63.40;;;;;;4972883;28;19914;-90
2022/04/08 03:34:21;;;;;;;;;;;11.30;63.40;;;;;;4972117;28;20486;-92
2022/04/08 03:36:47;;;;;;;;;;;11.30;63.30;;;;;;4951121;28;19914;-92
2022/04/08 03:39:13;;;;;;;;;;;11.30;63.30;;;;;;4979141;28;19978;-91
2022/04/08 03:41:42;;;;;;;;;;;11.20;63.20;;;;;;4978523;28;19922;-91
2022/04/08 03:44:07;;;;;;;;;;;11.20;63.00;;;;;;4976119;28;19948;-91
2022/04/08 03:46:33;;;;;;;;;;;11.20;62.90;;;;;;4973581;28;19919;-91
2022/04/08 03:48:58;;;;;;;;;;;11.10;62.90;;;;;;4955156;28;19928;-92
2022/04/08 03:51:24;;;;;;;;;;;11.00;62.80;;;;;;4976136;28;20001;-91
2022/04/08 03:53:49;;;;;;;;;;;11.00;62.80;;;;;;4977529;28;19950;-91
2022/04/08 03:56:15;;;;;;;;;;;10.90;62.80;;;;;;4976521;28;19918;-90
2022/04/08 03:58:40;;;;;;;;;;;10.90;62.70;;;;;;4966661;28;19946;-91
2022/04/08 04:01:06;;;;;;;;;;;10.80;62.50;;;;;;4975321;28;19998;-91
2022/04/08 04:03:31;;;;;;;;;;;10.80;62.40;;;;;;4970368;28;19962;-90
2022/04/08 04:06:00;;;;;;;;;;;10.80;62.50;;;;;;4976780;28;19918;-90
2022/04/08 04:08:26;;;;;;;;;;;10.70;62.30;;;;;;4975666;28;20326;-90
2022/04/08 04:10:51;;;;;;;;;;;10.70;62.10;;;;;;4975376;28;19997;-91
2022/04/08 04:13:17;;;;;;;;;;;10.60;61.80;;;;;;4979449;28;19921;-90
2022/04/08 04:15:42;;;;;;;;;;;10.50;61.40;;;;;;4954894;28;19921;-90
2022/04/08 04:18:08;;;;;;;;;;;10.40;61.00;;;;;;4961470;28;19980;-91
2022/04/08 04:20:33;;;;;;;;;;;10.30;60.60;;;;;;4961898;28;20309;-91
2022/04/08 04:22:59;;;;;;;;;;;10.20;60.30;;;;;;4978144;28;19922;-91
2022/04/08 04:25:26;;;;;;;;;;;10.00;60.50;;;;;;4975041;28;19914;-91
2022/04/08 04:27:51;;;;;;;;;;;9.90;60.40;;;;;;4977697;28;19952;-91
2022/04/08 04:30:16;;;;;;;;;;;9.90;60.90;;;;;;4959489;28;19918;-89
2022/04/08 04:32:42;;;;;;;;;;;9.80;61.10;;;;;;4974937;28;20409;-91
2022/04/08 04:35:08;;;;;;;;;;;9.80;61.60;;;;;;4961042;28;19915;-90
2022/04/08 04:37:34;;;;;;;;;;;9.80;61.60;;;;;;4979517;28;20011;-91
2022/04/08 04:40:00;;;;;;;;;;;9.80;61.60;;;;;;4978786;28;19925;-91
2022/04/08 04:42:27;;;;;;;;;;;9.70;61.40;;;;;;4961839;28;19950;-90
2022/04/08 04:44:53;;;;;;;;;;;9.70;61.40;;;;;;4958273;28;19922;-89
2022/04/08 04:47:18;;;;;;;;;;;9.70;61.50;;;;;;4978011;28;20294;-92
2022/04/08 04:49:44;;;;;;;;;;;9.70;62.00;;;;;;4976409;28;20383;-90
2022/04/08 04:52:10;;;;;;;;;;;9.80;62.50;;;;;;4979583;28;19915;-90
2022/04/08 04:54:35;;;;;;;;;;;9.80;62.80;;;;;;4977872;28;19911;-91
2022/04/08 04:57:00;;;;;;;;;;;9.90;63.10;;;;;;4959427;28;20394;-90
2022/04/08 04:59:28;;;;;;;;;;;10.00;63.20;;;;;;4953046;28;20378;-89
2022/04/08 05:01:54;;;;;;;;;;;10.10;63.40;;;;;;4978882;28;19922;-91
2022/04/08 05:04:19;;;;;;;;;;;10.30;63.30;;;;;;4978546;28;19922;-89
2022/04/08 05:06:45;;;;;;;;;;;10.30;63.40;;;;;;4978117;28;19914;-91
2022/04/08 05:09:10;;;;;;;;;;;10.40;63.40;;;;;;4977858;28;19914;-90
2022/04/08 05:11:36;;;;;;;;;;;10.50;63.40;;;;;;4976931;28;19972;-89
2022/04/08 05:14:01;;;;;;;;;;;10.60;63.30;;;;;;4976955;28;19910;-90
2022/04/08 05:16:27;;;;;;;;;;;10.60;63.30;;;;;;4978417;28;19921;-90
2022/04/08 05:18:53;;;;;;;;;;;10.70;63.20;;;;;;4977699;28;20604;-90
2022/04/08 05:21:18;;;;;;;;;;;10.60;63.20;;;;;;4976913;28;19941;-89
2022/04/08 05:23:44;;;;;;;;;;;10.60;63.00;;;;;;4977673;28;20060;-90
2022/04/08 05:26:09;;;;;;;;;;;10.70;62.80;;;;;;4978291;28;19914;-90
2022/04/08 05:28:35;;;;;;;;;;;10.70;62.80;;;;;;4978225;28;19918;-90
2022/04/08 05:31:00;;;;;;;;;;;10.70;63.20;;;;;;4976640;28;19918;-91
2022/04/08 05:33:26;;;;;;;;;;;10.80;63.20;;;;;;4977183;28;19946;-90
2022/04/08 05:35:51;;;;;;;;;;;10.90;63.30;;;;;;4977090;28;19914;-89
2022/04/08 05:38:16;;;;;;;;;;;10.90;63.10;;;;;;4960380;28;19918;-90
2022/04/08 05:40:42;;;;;;;;;;;10.90;63.00;;;;;;4977416;28;19964;-91
2022/04/08 05:43:08;;;;;;;;;;;10.90;62.80;;;;;;4960385;28;19930;-89
2022/04/08 05:45:33;;;;;;;;;;;10.90;62.80;;;;;;4960264;28;19968;-90
2022/04/08 05:48:05;;;;;;;;;;;10.90;62.60;;;;;;4976742;28;19968;-89
2022/04/08 05:50:31;;;;;;;;;;;10.90;62.70;;;;;;4977985;28;19915;-91
2022/04/08 05:52:57;;;;;;;;;;;10.90;62.90;;;;;;4974741;28;20267;-89
2022/04/08 05:55:22;;;;;;;;;;;11.00;63.50;;;;;;4976736;28;20381;-90
2022/04/08 05:57:48;;;;;;;;;;;11.20;64.30;;;;;;4975937;28;19985;-90
2022/04/08 06:00:14;;;;;;;;;;;11.50;64.90;;;;;;4983958;28;20371;-90
2022/04/08 06:02:40;;;;;;;;;;;11.90;65.70;;;;;;4975356;28;19957;-90
2022/04/08 06:05:06;;;;;;;;;;;12.20;65.90;;;;;;4979928;28;19918;-89
2022/04/08 06:07:31;;;;;;;;;;;12.50;65.30;;;;;;4975652;28;19918;-89
2022/04/08 06:10:00;;;;;;;;;;;12.70;64.70;;;;;;4976125;28;19922;-91
2022/04/08 06:12:26;;;;;;;;;;;12.70;64.30;;;;;;4976845;28;19921;-89
2022/04/08 06:14:53;;;;;;;;;;;12.90;64.70;;;;;;4976671;28;19918;-90
2022/04/08 06:17:18;;;;;;;;;;;13.20;64.90;;;;;;4975090;28;20348;-89
2022/04/08 06:19:46;;;;;;;;;;;13.50;65.90;;;;;;4973549;28;20005;-91
2022/04/08 06:22:15;;;;;;;;;;;14.00;66.60;;;;;;4958491;28;19910;-89
2022/04/08 06:24:40;;;;;;;;;;;14.30;65.70;;;;;;4973722;28;20354;-91
2022/04/08 06:27:08;;;;;;;;;;;14.60;65.10;;;;;;4954823;28;20029;-89
2022/04/08 06:29:33;;;;;;;;;;;14.80;64.00;;;;;;4974966;28;19918;-91
2022/04/08 06:31:58;;;;;;;;;;;14.90;62.90;;;;;;4974565;28;19918;-91
2022/04/08 06:34:24;;;;;;;;;;;14.90;62.10;;;;;;4970089;28;19950;-90
2022/04/08 06:36:49;;;;;;;;;;;14.80;61.60;;;;;;4974270;28;19929;-90
2022/04/08 06:39:15;;;;;;;;;;;14.70;61.40;;;;;;4972379;28;19938;-89
2022/04/08 06:41:40;;;;;;;;;;;14.60;60.90;;;;;;4972502;28;19918;-89
2022/04/08 06:44:06;;;;;;;;;;;14.40;61.20;;;;;;4975545;28;19973;-88
2022/04/08 06:46:31;;;;;;;;;;;14.30;61.60;;;;;;4974811;28;19902;-89
2022/04/08 06:49:02;;;;;;;;;;;14.30;62.10;;;;;;4959581;28;19914;-90
2022/04/08 06:51:29;;;;;;;;;;;14.40;62.30;;;;;;4965519;28;19922;-89
2022/04/08 06:53:54;;;;;;;;;;;14.60;63.40;;;;;;4974306;28;19946;-89
2022/04/08 06:56:20;;;;;;;;;;;14.70;62.80;;;;;;4973778;28;19969;-89
2022/04/08 06:58:45;;;;;;;;;;;14.80;62.50;;;;;;4974305;28;20663;-90
2022/04/08 07:01:11;;;;;;;;;;;14.90;63.70;;;;;;4973427;28;20285;-90
2022/04/08 07:03:36;;;;;;;;;;;15.40;65.20;;;;;;4973575;28;19969;-90
2022/04/08 07:06:03;;;;;;;;;;;15.80;66.30;;;;;;4975367;28;19922;-90
2022/04/08 07:08:28;;;;;;;;;;;16.40;66.20;;;;;;4976925;28;19949;-89
2022/04/08 07:10:54;;;;;;;;;;;17.00;66.00;;;;;;4977939;28;20585;-90
2022/04/08 07:13:19;;;;;;;;;;;17.60;65.10;;;;;;4976142;28;19922;-89
2022/04/08 07:15:45;;;;;;;;;;;18.20;65.50;;;;;;4975498;28;19953;-90
2022/04/08 07:18:10;;;;;;;;;;;18.80;64.30;;;;;;4977091;28;19922;-90
2022/04/08 07:20:36;;;;;;;;;;;19.30;64.10;;;;;;4976289;28;19922;-91
2022/04/08 07:23:05;;;;;;;;;;;19.80;63.90;;;;;;4975787;28;19933;-88
2022/04/08 07:25:33;;;;;;;;;;;20.20;63.50;;;;;;4975359;28;19914;-91
2022/04/08 07:27:59;;;;;;;;;;;20.60;62.30;;;;;;4959463;28;20440;-91
2022/04/08 07:30:25;;;;;;;;;;;20.80;61.20;;;;;;4974739;28;19922;-92
2022/04/08 07:32:52;;;;;;;;;;;20.80;57.50;;;;;;4974634;28;20362;-89
2022/04/08 07:35:18;;;;;;;;;;;20.70;59.10;;;;;;4976528;28;19925;-90
2022/04/08 07:37:43;;;;;;;;;;;20.80;59.30;;;;;;4959473;28;19918;-89
2022/04/08 07:40:10;;;;;;;;;;;20.70;55.60;;;;;;4976677;28;19918;-88
2022/04/08 07:42:35;;;;;;;;;;;20.40;56.30;;;;;;4974128;28;19914;-90
2022/04/08 07:45:01;;;;;;;;;;;20.20;56.80;;;;;;4976466;28;20422;-89
2022/04/08 07:47:26;;;;;;;;;;;20.00;57.10;;;;;;4959032;28;20271;-90
2022/04/08 07:49:55;;;;;;;;;;;20.10;60.70;;;;;;4974713;28;19972;-90
2022/04/08 07:52:21;;;;;;;;;;;20.30;59.60;;;;;;4976144;28;20001;-90
2022/04/08 07:54:46;;;;;;;;;;;20.70;61.60;;;;;;4976463;28;19945;-91
2022/04/08 07:57:15;;;;;;;;;;;21.20;60.30;;;;;;4964461;28;19926;-90
2022/04/08 07:59:40;;;;;;;;;;;21.30;59.70;;;;;;4975568;28;19921;-89
2022/04/08 08:02:06;;;;;;;;;;;21.30;56.70;;;;;;4959205;28;20202;-90
2022/04/08 08:04:31;;;;;;;;;;;21.30;56.20;;;;;;4978933;28;19922;-89
2022/04/08 08:06:57;;;;;;;;;;;21.30;56.80;;;;;;4962687;28;20032;-89
2022/04/08 08:09:25;;;;;;;;;;;21.30;55.30;;;;;;4970334;28;20012;-90
2022/04/08 08:11:51;;;;;;;;;;;21.10;55.80;;;;;;4954429;28;20363;-90
2022/04/08 08:14:16;;;;;;;;;;;20.90;54.70;;;;;;4975659;28;19926;-90
2022/04/08 08:16:41;;;;;;;;;;;20.60;52.50;;;;;;4973053;28;19925;-89
2022/04/08 08:19:07;;;;;;;;;;;20.50;52.90;;;;;;4977339;28;19918;-90
2022/04/08 08:21:32;;;;;;;;;;;20.70;55.10;;;;;;4975535;28;19922;-89
2022/04/08 08:23:58;;;;;;;;;;;20.80;54.40;;;;;;4974982;28;20526;-91
2022/04/08 08:26:23;;;;;;;;;;;20.90;52.40;;;;;;4980373;28;19922;-88
2022/04/08 08:28:52;;;;;;;;;;;21.00;54.40;;;;;;4980351;28;19918;-88
2022/04/08 08:31:20;;;;;;;;;;;21.20;54.50;;;;;;4976992;28;19945;-90
2022/04/08 08:37:08;;;;;;;;;;;21.90;55.90;;;;;;4951897;28;19976;-90
2022/04/08 08:39:34;;;;;;;;;;;22.30;52.30;;;;;;4979877;28;19925;-90
2022/04/08 08:42:01;;;;;;;;;;;22.50;51.70;;;;;;4961517;28;19918;-91
2022/04/08 08:44:26;;;;;;;;;;;22.70;50.00;;;;;;4976361;28;19932;-88
2022/04/08 08:46:52;;;;;;;;;;;22.90;49.90;;;;;;4959454;28;20586;-88
2022/04/08 08:49:25;;;;;;;;;;;23.20;49.30;;;;;;4976651;28;19938;-89
2022/04/08 08:51:56;;;;;;;;;;;23.60;49.00;;;;;;4976581;28;19922;-90
2022/04/08 08:54:22;;;;;;;;;;;23.90;47.40;;;;;;4974985;28;20004;-90
2022/04/08 08:56:47;;;;;;;;;;;24.20;46.90;;;;;;4975462;28;20660;-90
2022/04/08 08:59:14;;;;;;;;;;;24.30;45.70;;;;;;4976042;28;19918;-89
2022/04/08 09:01:39;;;;;;;;;;;24.40;46.40;;;;;;4959185;28;19918;-90
2022/04/08 09:04:06;;;;;;;;;;;24.40;44.10;;;;;;4960545;28;19922;-90
2022/04/08 09:06:39;;;;;;;;;;;24.50;44.50;;;;;;4961221;28;19926;-89
2022/04/08 09:09:05;;;;;;;;;;;24.50;43.20;;;;;;4956487;28;19925;-90
2022/04/08 09:11:30;;;;;;;;;;;24.60;41.30;;;;;;4959135;28;19918;-90
2022/04/08 09:14:03;;;;;;;;;;;24.70;43.40;;;;;;4975892;28;19932;-90
2022/04/08 09:16:29;;;;;;;;;;;24.80;37.90;;;;;;4957355;28;19949;-90
2022/04/08 09:18:55;;;;;;;;;;;24.70;36.60;;;;;;4975074;28;19918;-91
2022/04/08 09:21:22;;;;;;;;;;;24.50;36.30;;;;;;4981536;28;19985;-91
2022/04/08 09:23:47;;;;;;;;;;;24.40;38.70;;;;;;4958360;28;19921;-91
2022/04/08 09:26:14;;;;;;;;;;;24.30;37.00;;;;;;4980043;28;19969;-90
2022/04/08 09:28:56;;;;;;;;;;;24.20;37.30;;;;;;4972688;28;19926;-91
2022/04/08 09:31:22;;;;;;;;;;;24.20;38.30;;;;;;4972734;28;19918;-90
2022/04/08 09:33:52;;;;;;;;;;;24.10;38.70;;;;;;4975248;28;20033;-91
2022/04/08 09:36:31;;;;;;;;;;;24.00;38.30;;;;;;4957685;28;20437;-90
2022/04/08 09:38:56;;;;;;;;;;;24.00;37.10;;;;;;4968757;28;20719;-90
2022/04/08 09:41:35;;;;;;;;;;;23.90;35.30;;;;;;4957406;28;19914;-90
2022/04/08 09:44:01;;;;;;;;;;;23.70;37.00;;;;;;4974245;28;20038;-89
2022/04/08 09:46:26;;;;;;;;;;;23.70;37.40;;;;;;4975093;28;19938;-90
2022/04/08 09:48:51;;;;;;;;;;;23.80;38.50;;;;;;4973473;28;19968;-90
2022/04/08 09:51:21;;;;;;;;;;;23.80;36.70;;;;;;4976952;28;19926;-91
2022/04/08 09:54:10;;;;;;;;;;;23.80;37.10;;;;;;4969861;28;20005;-91
2022/04/08 09:56:36;;;;;;;;;;;23.80;36.10;;;;;;4958638;28;20382;-91
2022/04/08 09:59:21;;;;;;;;;;;23.70;35.60;;;;;;4973482;28;19926;-91
2022/04/08 10:01:47;;;;;;;;;;;23.70;35.30;;;;;;4973940;28;19954;-90
2022/04/08 10:04:13;;;;;;;;;;;23.70;36.70;;;;;;4974580;28;19975;-91
2022/04/08 10:06:39;;;;;;;;;;;23.70;36.90;;;;;;4974156;28;20457;-90
2022/04/08 10:09:14;;;;;;;;;;;23.70;35.50;;;;;;4958081;28;19919;-90
2022/04/08 10:11:45;;;;;;;;;;;23.40;32.00;;;;;;4973152;28;19980;-90
2022/04/08 10:14:28;;;;;;;;;;;23.20;34.20;;;;;;4970616;28;19922;-90
2022/04/08 10:16:55;;;;;;;;;;;23.10;35.30;;;;;;4978907;28;20247;-90
2022/04/08 10:19:23;;;;;;;;;;;23.10;36.60;;;;;;4974802;28;19918;-91
2022/04/08 10:21:55;;;;;;;;;;;23.20;36.00;;;;;;4981038;28;20150;-90
2022/04/08 10:24:22;;;;;;;;;;;23.10;35.00;;;;;;4980263;28;20387;-90
2022/04/08 10:26:56;;;;;;;;;;;23.00;35.70;;;;;;4970980;28;20374;-90
2022/04/08 10:29:21;;;;;;;;;;;23.00;35.00;;;;;;4974884;28;19941;-91
2022/04/08 10:31:54;;;;;;;;;;;23.20;34.60;;;;;;4957046;28;19926;-90
2022/04/08 10:34:21;;;;;;;;;;;23.10;35.10;;;;;;4976927;28;19922;-89
2022/04/08 10:36:46;;;;;;;;;;;23.10;35.90;;;;;;4948794;28;19925;-90
2022/04/08 10:39:30;;;;;;;;;;;23.20;33.60;;;;;;4975352;28;20255;-91
2022/04/08 10:41:57;;;;;;;;;;;23.10;31.30;;;;;;4976342;28;19968;-90
2022/04/08 10:44:30;;;;;;;;;;;23.10;33.10;;;;;;4978674;28;20580;-90
2022/04/08 10:46:57;;;;;;;;;;;23.20;34.90;;;;;;4970672;28;19925;-90
2022/04/08 10:49:23;;;;;;;;;;;23.30;33.00;;;;;;4978232;28;19988;-89
2022/04/08 10:51:49;;;;;;;;;;;23.30;32.30;;;;;;4961003;28;20354;-91
2022/04/08 10:54:15;;;;;;;;;;;23.20;32.30;;;;;;4978394;28;19961;-90
2022/04/08 10:56:41;;;;;;;;;;;23.20;30.70;;;;;;4976485;28;19928;-90
2022/04/08 10:59:07;;;;;;;;;;;23.20;32.60;;;;;;4976411;28;19930;-90
2022/04/08 11:01:35;;;;;;;;;;;23.20;31.90;;;;;;4978468;28;19914;-90
2022/04/08 11:04:02;;;;;;;;;;;23.20;31.60;;;;;;4977067;28;20318;-90
2022/04/08 11:06:29;;;;;;;;;;;23.30;31.60;;;;;;4977525;28;19918;-89
2022/04/08 11:08:54;;;;;;;;;;;23.30;32.10;;;;;;4977145;28;20385;-90
2022/04/08 11:11:27;;;;;;;;;;;23.30;32.40;;;;;;4960472;28;19918;-90
2022/04/08 11:13:56;;;;;;;;;;;23.40;32.10;;;;;;4977864;28;19961;-90
2022/04/08 11:16:22;;;;;;;;;;;23.30;31.00;;;;;;4976540;28;19919;-91
2022/04/08 11:18:48;;;;;;;;;;;23.30;31.40;;;;;;4977293;28;19929;-90
2022/04/08 11:21:18;;;;;;;;;;;23.20;31.60;;;;;;4976450;28;19926;-89
2022/04/08 11:23:55;;;;;;;;;;;23.20;32.00;;;;;;4976479;28;19966;-90
2022/04/08 11:26:20;;;;;;;;;;;23.20;32.20;;;;;;4976965;28;20008;-91
2022/04/08 11:28:45;;;;;;;;;;;23.20;31.90;;;;;;4978286;28;19954;-89
2022/04/08 11:31:11;;;;;;;;;;;23.20;31.20;;;;;;4977605;28;19918;-91
2022/04/08 11:33:36;;;;;;;;;;;23.20;31.10;;;;;;4978869;28;20041;-90
2022/04/08 11:36:03;;;;;;;;;;;23.20;31.20;;;;;;4978304;28;19918;-89
2022/04/08 11:38:29;;;;;;;;;;;23.20;31.40;;;;;;4957127;29;19918;-91
2022/04/08 11:40:55;;;;;;;;;;;23.30;31.00;;;;;;4958949;28;19922;-91
2022/04/08 11:43:21;;;;;;;;;;;23.40;31.80;;;;;;4974784;28;19988;-90
2022/04/08 11:45:52;;;;;;;;;;;23.50;32.10;;;;;;4977435;28;19922;-89
2022/04/08 11:48:22;;;;;;;;;;;23.50;31.40;;;;;;4977379;28;20370;-92
2022/04/08 11:50:48;;;;;;;;;;;23.40;30.90;;;;;;4974720;28;20007;-90
2022/04/08 11:53:20;;;;;;;;;;;23.30;30.50;;;;;;4958554;28;20299;-90
2022/04/08 11:55:52;;;;;;;;;;;23.20;30.40;;;;;;4976030;28;19929;-89
2022/04/08 11:58:18;;;;;;;;;;;23.20;30.40;;;;;;4959902;28;19918;-89
2022/04/08 12:00:46;;;;;;;;;;;23.20;29.70;;;;;;4959826;28;20483;-90
2022/04/08 12:03:16;;;;;;;;;;;23.00;29.10;;;;;;4976963;28;19932;-90
2022/04/08 12:05:45;;;;;;;;;;;22.90;29.10;;;;;;4977735;28;19920;-90
2022/04/08 12:08:10;;;;;;;;;;;22.90;28.80;;;;;;4977973;28;19915;-90
2022/04/08 12:10:36;;;;;;;;;;;22.90;29.10;;;;;;4981688;28;20004;-91
2022/04/08 12:13:11;;;;;;;;;;;23.00;28.80;;;;;;4980811;28;19910;-91
2022/04/08 12:15:41;;;;;;;;;;;23.00;28.20;;;;;;4973452;28;19932;-91
2022/04/08 12:18:06;;;;;;;;;;;23.10;28.10;;;;;;4980601;28;19982;-90
2022/04/08 12:20:37;;;;;;;;;;;23.20;28.00;;;;;;4980560;28;19988;-90
2022/04/08 12:23:03;;;;;;;;;;;23.10;26.80;;;;;;4979832;28;19910;-90
2022/04/08 12:25:30;;;;;;;;;;;23.10;26.60;;;;;;4981488;28;19946;-91
2022/04/08 12:27:56;;;;;;;;;;;23.10;26.90;;;;;;4980709;28;19914;-91
2022/04/08 12:30:25;;;;;;;;;;;23.00;26.90;;;;;;4979109;28;19938;-90
2022/04/08 12:32:51;;;;;;;;;;;23.00;26.80;;;;;;4977680;28;19937;-92
2022/04/08 12:35:16;;;;;;;;;;;23.10;26.90;;;;;;4977711;28;19926;-90
2022/04/08 12:37:42;;;;;;;;;;;23.20;27.00;;;;;;4978818;28;19915;-89
2022/04/08 12:40:07;;;;;;;;;;;23.20;26.80;;;;;;4978002;28;20481;-90
2022/04/08 12:42:34;;;;;;;;;;;23.30;27.40;;;;;;4964343;28;19914;-90
2022/04/08 12:45:00;;;;;;;;;;;23.20;27.40;;;;;;4983739;28;19986;-90
2022/04/08 12:47:25;;;;;;;;;;;23.20;26.80;;;;;;4978971;28;19930;-89
2022/04/08 12:49:51;;;;;;;;;;;23.10;27.40;;;;;;4979674;28;20001;-90
2022/04/08 12:52:16;;;;;;;;;;;23.10;27.40;;;;;;4979768;28;19922;-91
2022/04/08 12:54:42;;;;;;;;;;;23.00;26.90;;;;;;4981078;28;19926;-90
2022/04/08 12:57:07;;;;;;;;;;;23.00;27.00;;;;;;4981167;28;19918;-90
2022/04/08 12:59:33;;;;;;;;;;;23.00;27.30;;;;;;4982008;28;19914;-89
2022/04/08 13:01:58;;;;;;;;;;;23.00;27.10;;;;;;4980004;28;19953;-91
2022/04/08 13:04:24;;;;;;;;;;;23.00;27.10;;;;;;4966301;28;19957;-90
2022/04/08 13:06:52;;;;;;;;;;;22.90;26.10;;;;;;4979321;28;19922;-89
2022/04/08 13:09:19;;;;;;;;;;;22.80;26.30;;;;;;4981031;28;20019;-91
2022/04/08 13:11:46;;;;;;;;;;;22.70;25.80;;;;;;4983666;28;19913;-88
2022/04/08 13:14:12;;;;;;;;;;;22.70;26.30;;;;;;4976062;28;19921;-89
2022/04/08 13:16:37;;;;;;;;;;;22.60;25.90;;;;;;4975441;28;20378;-90
2022/04/08 13:19:03;;;;;;;;;;;22.40;25.30;;;;;;4974576;28;19914;-90
2022/04/08 13:21:28;;;;;;;;;;;22.30;26.40;;;;;;4975217;28;19914;-90
2022/04/08 13:23:54;;;;;;;;;;;22.30;26.30;;;;;;4959320;28;19934;-89
2022/04/08 13:26:20;;;;;;;;;;;22.20;26.00;;;;;;4975986;28;19918;-90
2022/04/08 13:28:45;;;;;;;;;;;22.10;26.20;;;;;;4974545;28;20057;-92
2022/04/08 13:31:11;;;;;;;;;;;22.00;26.90;;;;;;4977378;28;19945;-91
2022/04/08 13:33:36;;;;;;;;;;;22.00;26.80;;;;;;4974845;28;19930;-90
2022/04/08 13:36:02;;;;;;;;;;;21.90;26.70;;;;;;4977238;28;20433;-90
2022/04/08 13:38:27;;;;;;;;;;;21.90;25.50;;;;;;4976552;28;19929;-90
2022/04/08 13:40:53;;;;;;;;;;;21.80;26.10;;;;;;4975122;28;20290;-91
2022/04/08 13:43:18;;;;;;;;;;;21.70;26.60;;;;;;4977042;28;19936;-90
2022/04/08 13:45:44;;;;;;;;;;;21.70;27.00;;;;;;4975066;28;19969;-90
2022/04/08 13:48:09;;;;;;;;;;;21.70;26.90;;;;;;4975764;28;19918;-90
2022/04/08 13:50:35;;;;;;;;;;;21.60;26.70;;;;;;4978227;28;19915;-90
2022/04/08 13:53:00;;;;;;;;;;;21.50;26.70;;;;;;4977150;28;19918;-91
2022/04/08 13:55:26;;;;;;;;;;;21.40;26.80;;;;;;4975165;28;19965;-89
2022/04/08 13:57:51;;;;;;;;;;;21.30;26.60;;;;;;4957657;28;19911;-89
2022/04/08 14:00:17;;;;;;;;;;;21.20;26.40;;;;;;4957961;28;19925;-89
2022/04/08 14:02:43;;;;;;;;;;;21.10;26.70;;;;;;4976503;28;19918;-89
2022/04/08 14:05:09;;;;;;;;;;;21.10;26.80;;;;;;4959172;28;19970;-90
2022/04/08 14:07:34;;;;;;;;;;;21.00;27.00;;;;;;4976615;28;19914;-90
2022/04/08 14:10:00;;;;;;;;;;;21.00;26.50;;;;;;4975889;28;19918;-89
2022/04/08 14:12:26;;;;;;;;;;;20.90;26.40;;;;;;4976651;28;19924;-89
2022/04/08 14:14:52;;;;;;;;;;;20.80;26.80;;;;;;4974520;28;19929;-90
2022/04/08 14:17:18;;;;;;;;;;;20.80;27.10;;;;;;4977758;28;20440;-90